Detalii statie Girov TCE 3 BRAZI [000011A2]

Toti senzorii

Date Temperatura solului [C]Precipitatii [mm]Voltaj baterie [mV]Leaf Wetness [Min]HC Air temperature [C]HC Relative humidity [%]Punctul de roua [C]
medieminmaxsumaultimatimpmedieminmaxmediemediemin
2018-08-12 11:00:00 0 6992 0 26.36 23.53 29.97 100 26.3 23.5
2018-08-12 12:00:00 0 6982 0 28.29 25.69 30.56 100 28.2 25.6
2018-08-12 13:00:00 0 6992 0 26.83 25.99 30.98 100 26.7 25.9
2018-08-12 14:00:00 0 6992 0 26.73 26.2 28.32 100 26.7 26.2
2018-08-12 15:00:00 0 6992 0 27.3 26.6 28.46 100 27.2 26.6
2018-08-12 16:00:00 0 6992 0 27.52 26.94 28.22 100 27.4 26.9
2018-08-12 17:00:00 0 6982 0 25.59 24.62 27.8 100 25.5 24.6
2018-08-12 18:00:00 0 6982 0 24.8 24.64 25.05 100 24.7 24.6
2018-08-12 19:00:00 0 6796 0 24.58 24.09 24.87 100 24.5 24
2018-08-12 20:00:00 0 6698 0 23.32 22.43 24.1 100 23.2 22.4
2018-08-12 21:00:00 0 6590 0 21.38 20.81 22.29 100 21.3 20.8
2018-08-12 22:00:00 0 6582 0 19.57 18.5 20.77 100 19.5 18.5
2018-08-12 23:00:00 0 6562 0 18.57 18.03 18.95 100 18.5 18
2018-08-13 00:00:00 0 6572 0 17.26 16.76 17.94 100 17.2 16.7
2018-08-13 01:00:00 0 6562 0 16.41 15.82 16.84 100 16.3 15.8
2018-08-13 02:00:00 0 6552 0 16.2 15.39 16.79 100 16.1 15.3
2018-08-13 03:00:00 0 6542 0 15.32 15.15 15.51 100 15.2 15.1
2018-08-13 04:00:00 0 6532 0 15.29 14.95 15.58 100 15.2 14.9
2018-08-13 05:00:00 0 6532 0 14.81 14.61 15.14 100 14.7 14.6
2018-08-13 06:00:00 0 6522 0 14.47 14.18 14.8 100 14.4 14.1
2018-08-13 07:00:00 0 6532 0 14.68 14.32 15.59 100 14.6 14.3
2018-08-13 08:00:00 0 6600 0 18.3 16.01 20.48 100 18.2 16
2018-08-13 09:00:00 0 6816 0 22.16 21.21 23.04 100 22.1 21.2
2018-08-13 10:00:00 0 6992 0 23.89 22.84 24.79 100 23.8 22.8
2018-08-13 11:00:00 0 6992 0 25.77 24.66 27.42 100 25.7 24.6
2018-08-13 12:00:00 0 6982 0 28.6 27.75 29.21 100 28.5 27.7
2018-08-13 13:00:00 0 6982 0 30.62 29.81 31.89 100 30.5 29.8
2018-08-13 14:00:00 0 6982 0 30.1 29.28 31.07 100 30 29.2
2018-08-13 15:00:00 0 6982 0 29.77 28.66 31.06 100 29.7 28.6
2018-08-13 16:00:00 0 6992 0 30.37 29.46 31.35 100 30.3 29.4
2018-08-13 17:00:00 0 6982 0 30.06 29.62 30.86 100 30 29.6
2018-08-13 18:00:00 0 6884 0 29.23 28.65 30.69 100 29.1 28.6
2018-08-13 19:00:00 0 6972 0 27.66 26.47 28.55 100 27.6 26.4
2018-08-13 20:00:00 0 6640 0 25.41 24.27 26.4 100 25.3 24.2
2018-08-13 21:00:00 0 6572 0 22.88 21.67 24.23 100 22.8 21.6
2018-08-13 22:00:00 0 6572 0 20.79 19.9 21.52 100 20.7 19.9
2018-08-13 23:00:00 0 6562 0 19.2 18.38 19.84 100 19.1 18.3
2018-08-14 00:00:00 0 6562 0 17.88 17.56 18.26 100 17.8 17.5
2018-08-14 01:00:00 0 6542 0 16.94 16.46 17.54 100 16.9 16.4
2018-08-14 02:00:00 0 6542 0 16.16 15.89 16.58 100 16.1 15.8
2018-08-14 03:00:00 0 6532 0 15.93 15.8 16.17 100 15.9 15.8
2018-08-14 04:00:00 0 6522 0 15.56 15.37 16.02 100 15.5 15.3
2018-08-14 05:00:00 0 6512 0 15.16 14.85 15.33 100 15.1 14.8
2018-08-14 06:00:00 0 6512 0 15.11 14.86 15.29 100 15 14.8
2018-08-14 07:00:00 0 6522 0 14.99 14.73 15.24 100 14.9 14.7
2018-08-14 08:00:00 0 6590 0 17.51 15.52 20.06 100 17.4 15.5
2018-08-14 09:00:00 0 6796 0 23.53 21.05 25.99 100 23.4 21
2018-08-14 10:00:00 0 6992 0 26.91 25.75 28.67 100 26.8 25.7